Terminal Aerodrome Forecast
Issued by NWS

Home | Current Version | Previous Version | Text Only | Print | Product List | Glossary On
Versions: 1 2 3 4 5 6 7 8 9 10 11 12 13
000
FTUS45 KRIW 062300
TAFBPI
TAF
KBPI 062324Z 0700/0724 VRB06KT P6SM SCT060
     FM070200 13008KT P6SM VCSH BKN050
     FM070500 14010KT 6SM -SHRA SCT010 BKN015
     FM070800 VRB10KT 4SM -SHRASN SCT005 BKN010
     FM071100 VRB07KT 5SM BR VCSH SCT010 BKN015
     FM071500 14011KT P6SM SCT020 BKN030
     FM072000 11010KT P6SM SCT050=

USA.gov is the U.S. government's official web portal to all federal, state and local government web resources and services.